Time;durP1;ratioP1;P1;durP2;ratioP2;P2;SDS_P1;SDS_P2;PMS_P1;PMS_P2;Temp;Humidity;BMP_temperature;BMP_pressure;BME280_temperature;BME280_humidity;BME280_pressure;Samples;Min_cycle;Max_cycle;Signal;HPM_P1;HPM_P2
2021/12/03 00:01:41;;;;;;;7.23;6.30;;;;;;;3.77;74.50;94764.13;4994704;28;20215;-82
2021/12/03 00:04:07;;;;;;;7.00;5.70;;;;;;;3.74;75.08;94777.16;4993923;28;20207;-82
2021/12/03 00:06:37;;;;;;;7.50;6.00;;;;;;;3.74;75.22;94777.94;4992830;28;20223;-82
2021/12/03 00:09:05;;;;;;;6.73;6.03;;;;;;;3.73;75.09;94786.53;4993635;28;20234;-82
2021/12/03 00:11:32;;;;;;;6.67;6.00;;;;;;;3.74;75.34;94793.22;4993166;28;20195;-82
2021/12/03 00:13:58;;;;;;;7.43;6.10;;;;;;;3.76;74.99;94782.88;4993739;28;20411;-81
2021/12/03 00:16:24;;;;;;;6.07;5.47;;;;;;;3.75;75.01;94789.72;4993076;28;20246;-83
2021/12/03 00:18:53;;;;;;;6.20;5.47;;;;;;;3.70;75.35;94791.13;4992916;28;20218;-83
2021/12/03 00:21:20;;;;;;;7.90;6.17;;;;;;;3.66;75.52;94800.81;4993156;28;20269;-83
2021/12/03 00:23:47;;;;;;;7.30;5.80;;;;;;;3.67;75.17;94802.41;4993608;28;20257;-83
2021/12/03 00:26:13;;;;;;;6.53;5.67;;;;;;;3.69;75.19;94810.69;4993064;28;20219;-83
2021/12/03 00:28:40;;;;;;;7.60;5.70;;;;;;;3.61;75.20;94809.88;4992330;28;20195;-82
2021/12/03 00:31:08;;;;;;;6.60;5.90;;;;;;;3.54;75.42;94817.31;4990902;28;20386;-81
2021/12/03 00:33:36;;;;;;;6.70;6.00;;;;;;;3.59;75.66;94830.38;4990128;28;20203;-82
2021/12/03 00:36:06;;;;;;;8.30;6.20;;;;;;;3.56;75.26;94825.59;4993272;28;20683;-83
2021/12/03 00:38:36;;;;;;;7.70;6.33;;;;;;;3.59;75.38;94845.66;4993633;28;20261;-82
2021/12/03 00:41:06;;;;;;;7.50;6.30;;;;;;;3.62;75.48;94859.84;4993008;28;20227;-82
2021/12/03 00:43:33;;;;;;;7.23;6.23;;;;;;;3.59;75.47;94858.38;4993480;28;20226;-82
2021/12/03 00:46:05;;;;;;;7.50;5.93;;;;;;;3.56;76.06;94856.13;4992343;28;20636;-81
2021/12/03 00:48:32;;;;;;;7.43;6.60;;;;;;;3.60;75.59;94862.53;4993542;28;20199;-83
2021/12/03 00:50:58;;;;;;;6.97;6.27;;;;;;;3.60;75.94;94869.38;4992910;28;20319;-82
2021/12/03 00:53:26;;;;;;;6.53;5.83;;;;;;;3.53;76.45;94879.34;4993578;28;20207;-81
2021/12/03 00:55:53;;;;;;;6.80;6.10;;;;;;;3.46;76.45;94891.84;4993576;28;20224;-82
2021/12/03 00:58:19;;;;;;;7.27;6.37;;;;;;;3.50;75.98;94897.44;4993602;28;20212;-83
2021/12/03 01:00:45;;;;;;;10.40;6.33;;;;;;;3.53;76.43;94909.06;4992878;28;20219;-82
2021/12/03 01:03:12;;;;;;;6.90;6.20;;;;;;;3.51;76.25;94918.59;4993034;28;20235;-80
2021/12/03 01:05:38;;;;;;;7.93;6.30;;;;;;;3.57;76.16;94918.81;4992927;28;20258;-82
2021/12/03 01:08:05;;;;;;;6.63;5.87;;;;;;;3.64;75.90;94919.81;4993041;28;20199;-83
2021/12/03 01:10:33;;;;;;;8.10;6.47;;;;;;;3.65;75.68;94923.97;4991886;28;20286;-81
2021/12/03 01:13:00;;;;;;;7.03;6.30;;;;;;;3.60;75.68;94925.34;4993211;28;20200;-80
2021/12/03 01:15:31;;;;;;;7.47;6.07;;;;;;;3.63;75.84;94930.16;4991769;28;20226;-82
2021/12/03 01:17:58;;;;;;;7.03;6.33;;;;;;;3.56;75.88;94929.94;4993380;28;20203;-81
2021/12/03 01:20:25;;;;;;;8.20;6.90;;;;;;;3.61;75.81;94943.03;4992925;28;20231;-82
2021/12/03 01:22:54;;;;;;;8.03;6.47;;;;;;;3.68;76.27;94951.63;4992933;28;20204;-82
2021/12/03 01:25:21;;;;;;;7.80;6.60;;;;;;;3.75;76.26;94964.56;4993368;28;20230;-81
2021/12/03 01:27:50;;;;;;;7.90;6.50;;;;;;;3.77;76.55;94972.88;4992624;28;20206;-81
2021/12/03 01:30:20;;;;;;;9.77;6.77;;;;;;;3.83;75.70;94974.03;4992173;28;20231;-83
2021/12/03 01:32:48;;;;;;;9.80;7.30;;;;;;;3.85;75.73;94978.00;4992340;28;20270;-82
2021/12/03 01:35:15;;;;;;;9.23;7.13;;;;;;;3.75;75.93;94984.94;4992255;28;20223;-82
2021/12/03 01:37:43;;;;;;;8.17;6.80;;;;;;;3.81;75.91;94977.53;4992958;28;20657;-82
2021/12/03 01:40:14;;;;;;;9.20;6.77;;;;;;;3.79;75.71;94991.34;4992242;28;20229;-82
2021/12/03 01:42:44;;;;;;;8.07;7.20;;;;;;;3.79;75.74;94989.59;4992132;28;20200;-81
2021/12/03 01:45:13;;;;;;;8.23;6.90;;;;;;;3.67;76.86;94992.50;4992048;28;20741;-81
2021/12/03 01:47:41;;;;;;;8.43;6.70;;;;;;;3.68;76.34;94987.28;4992631;28;20210;-82
2021/12/03 01:50:08;;;;;;;8.57;7.30;;;;;;;3.69;76.62;94981.25;4991651;28;20698;-81
2021/12/03 01:52:35;;;;;;;9.13;7.60;;;;;;;3.68;76.08;94972.00;4992086;28;20195;-82
2021/12/03 01:55:02;;;;;;;8.30;7.17;;;;;;;3.68;76.29;94971.19;4992601;28;20227;-83
2021/12/03 01:57:29;;;;;;;7.50;6.73;;;;;;;3.69;75.81;94971.06;4992619;28;20200;-82
2021/12/03 01:59:55;;;;;;;7.50;6.80;;;;;;;3.71;76.07;94984.44;4991965;28;20239;-82
2021/12/03 02:02:24;;;;;;;7.80;7.00;;;;;;;3.74;75.52;94985.88;4993020;28;20538;-82
2021/12/03 02:04:50;;;;;;;7.97;7.17;;;;;;;3.72;75.46;94986.03;4993202;28;20231;-82
2021/12/03 02:07:17;;;;;;;7.67;6.87;;;;;;;3.72;75.41;94980.94;4993237;28;20265;-83
2021/12/03 02:09:43;;;;;;;8.67;6.50;;;;;;;3.70;75.23;94980.28;4992762;28;20577;-82
2021/12/03 02:12:10;;;;;;;7.40;6.50;;;;;;;3.74;74.94;94978.25;4992731;28;20203;-82
2021/12/03 02:14:37;;;;;;;7.63;6.77;;;;;;;3.75;74.61;94980.66;4991621;28;20230;-82
2021/12/03 02:17:04;;;;;;;7.97;7.17;;;;;;;3.70;74.58;94979.50;4992085;28;20206;-81
2021/12/03 02:19:32;;;;;;;7.77;6.43;;;;;;;3.73;74.26;94985.09;4992150;28;20231;-80
2021/12/03 02:22:00;;;;;;;7.30;6.60;;;;;;;3.75;74.51;94982.41;4991179;28;20203;-81
2021/12/03 02:24:27;;;;;;;8.57;6.70;;;;;;;3.77;74.47;94981.31;4992092;28;20234;-82
2021/12/03 02:26:54;;;;;;;7.77;6.87;;;;;;;3.76;74.41;94979.69;4993559;28;20207;-82
2021/12/03 02:29:21;;;;;;;8.40;6.93;;;;;;;3.74;74.09;94984.16;4994695;28;20233;-81
2021/12/03 02:31:47;;;;;;;8.47;7.13;;;;;;;3.74;74.11;94993.53;4995184;28;20227;-82
2021/12/03 02:34:14;;;;;;;8.03;6.63;;;;;;;3.69;74.38;94993.16;4995645;28;20236;-81
2021/12/03 02:36:40;;;;;;;9.47;7.20;;;;;;;3.70;74.41;94998.13;4995230;28;20208;-82
2021/12/03 02:39:08;;;;;;;8.23;6.83;;;;;;;3.73;74.69;94994.47;4995024;28;20231;-82
2021/12/03 02:41:35;;;;;;;7.90;6.50;;;;;;;3.73;74.34;94992.72;4994439;28;20196;-82
2021/12/03 02:44:01;;;;;;;7.83;6.60;;;;;;;3.81;73.90;94999.63;4995046;28;20210;-82
2021/12/03 02:46:28;;;;;;;9.03;7.13;;;;;;;3.79;74.42;95004.88;4995210;28;20223;-81
2021/12/03 02:48:54;;;;;;;7.70;6.80;;;;;;;3.73;74.28;95010.53;4995217;28;20199;-81
2021/12/03 02:51:21;;;;;;;8.20;6.97;;;;;;;3.70;74.72;95015.94;4995745;28;20318;-80
2021/12/03 02:53:48;;;;;;;8.03;6.73;;;;;;;3.65;74.69;95014.78;4995317;28;20204;-82
2021/12/03 02:56:15;;;;;;;9.10;7.57;;;;;;;3.67;74.75;95016.22;4994846;28;20234;-80
2021/12/03 02:58:42;;;;;;;7.30;6.53;;;;;;;3.72;74.90;95025.97;4995182;28;20208;-80
2021/12/03 03:01:10;;;;;;;7.87;7.00;;;;;;;3.78;74.97;95025.38;4995412;28;20592;-81
2021/12/03 03:03:38;;;;;;;8.53;6.80;;;;;;;3.71;74.78;95037.09;4994871;28;20687;-80
2021/12/03 03:06:06;;;;;;;8.07;6.73;;;;;;;3.76;74.56;95032.38;4979195;28;20211;-81
2021/12/03 03:08:33;;;;;;;7.47;6.67;;;;;;;3.73;74.92;95025.03;4994637;28;20196;-81
2021/12/03 03:11:02;;;;;;;8.33;7.07;;;;;;;3.79;74.73;95039.72;5007725;28;20257;-81
2021/12/03 03:13:30;;;;;;;7.50;6.80;;;;;;;3.67;74.82;95046.75;5015571;28;20202;-81
2021/12/03 03:15:58;;;;;;;7.63;6.50;;;;;;;3.65;74.68;95040.25;5016485;28;20223;-81
2021/12/03 03:18:27;;;;;;;8.03;6.70;;;;;;;3.64;75.08;95043.75;4999147;28;20687;-81
2021/12/03 03:20:56;;;;;;;8.00;6.67;;;;;;;3.67;74.96;95051.84;4995719;28;20720;-82
2021/12/03 03:23:23;;;;;;;6.97;6.23;;;;;;;3.63;75.00;95042.13;4995902;28;20783;-82
2021/12/03 03:25:50;;;;;;;8.13;6.60;;;;;;;3.66;75.07;95047.72;4976869;28;20224;-81
2021/12/03 03:28:18;;;;;;;7.50;6.47;;;;;;;3.50;75.16;95050.13;4983984;28;20226;-82
2021/12/03 03:30:49;;;;;;;6.77;6.07;;;;;;;3.57;75.13;95052.91;4995284;28;20223;-81
2021/12/03 03:33:17;;;;;;;8.87;6.13;;;;;;;3.58;75.59;95054.50;4996257;28;20251;-83
2021/12/03 03:35:44;;;;;;;8.90;6.00;;;;;;;3.55;75.68;95053.03;4996300;28;20274;-83
2021/12/03 03:38:12;;;;;;;6.27;5.67;;;;;;;3.61;75.24;95052.47;4995890;28;20210;-83
2021/12/03 03:40:39;;;;;;;6.80;5.87;;;;;;;3.59;75.15;95054.34;4995872;28;20231;-81
2021/12/03 03:43:06;;;;;;;9.67;6.10;;;;;;;3.55;75.22;95062.44;4994812;28;20200;-82
2021/12/03 03:45:33;;;;;;;6.93;6.23;;;;;;;3.53;76.14;95071.94;4995787;28;20307;-82
2021/12/03 03:48:01;;;;;;;7.00;5.63;;;;;;;3.56;75.35;95064.03;4995771;28;20207;-82
2021/12/03 03:50:29;;;;;;;6.93;5.70;;;;;;;3.57;76.02;95071.50;4995638;28;20591;-82
2021/12/03 03:52:56;;;;;;;6.53;5.73;;;;;;;3.56;75.32;95067.38;4995635;28;20204;-82
2021/12/03 03:55:23;;;;;;;8.37;6.00;;;;;;;3.53;75.66;95072.75;4995699;28;20219;-83
2021/12/03 03:57:53;;;;;;;6.63;5.73;;;;;;;3.54;75.92;95071.00;4995098;28;20257;-83
2021/12/03 04:00:22;;;;;;;8.60;5.77;;;;;;;3.51;76.09;95072.09;4995344;28;20234;-83
2021/12/03 04:02:49;;;;;;;6.30;5.43;;;;;;;3.43;76.34;95083.00;4995645;28;20207;-81
2021/12/03 04:05:17;;;;;;;6.50;5.60;;;;;;;3.43;76.93;95082.22;4994946;28;20231;-83
2021/12/03 04:07:44;;;;;;;7.00;5.80;;;;;;;3.33;77.50;95084.81;4995491;28;20198;-83
2021/12/03 04:10:11;;;;;;;6.77;5.83;;;;;;;3.27;78.42;95087.16;4995289;28;20223;-83
2021/12/03 04:12:39;;;;;;;6.87;5.83;;;;;;;3.28;78.13;95093.81;4995244;28;20223;-83
2021/12/03 04:15:07;;;;;;;6.63;5.93;;;;;;;3.24;78.54;95095.06;4995036;28;20242;-83
2021/12/03 04:17:34;;;;;;;6.50;5.43;;;;;;;3.24;78.52;95100.94;4995261;28;20220;-83
2021/12/03 04:20:00;;;;;;;7.10;5.90;;;;;;;3.20;78.89;95094.53;4994862;28;20750;-83
2021/12/03 04:22:28;;;;;;;7.23;5.83;;;;;;;3.18;78.71;95100.72;4995701;28;20547;-83
2021/12/03 04:24:56;;;;;;;6.07;5.47;;;;;;;3.18;78.33;95098.97;4995193;28;20219;-81
2021/12/03 04:27:23;;;;;;;6.23;5.43;;;;;;;3.16;77.98;95105.94;4995162;28;20258;-80
2021/12/03 04:29:50;;;;;;;6.57;5.13;;;;;;;3.18;78.33;95100.72;4994435;28;20238;-81
2021/12/03 04:32:17;;;;;;;6.30;5.70;;;;;;;3.25;78.34;95110.19;4994324;28;20227;-80
2021/12/03 04:34:44;;;;;;;6.13;5.53;;;;;;;3.26;78.28;95113.53;4994548;28;20223;-81
2021/12/03 04:37:11;;;;;;;6.13;5.53;;;;;;;3.30;77.70;95102.09;4995139;28;20644;-80
2021/12/03 04:39:39;;;;;;;6.83;5.30;;;;;;;3.25;77.76;95104.28;4993814;28;20231;-82
2021/12/03 04:42:06;;;;;;;6.27;5.30;;;;;;;3.28;77.12;95111.63;4994179;28;20200;-82
2021/12/03 04:44:34;;;;;;;6.97;4.93;;;;;;;3.26;76.54;95111.78;4994528;28;20231;-81
2021/12/03 04:47:01;;;;;;;6.23;5.10;;;;;;;3.26;76.37;95116.88;4994545;28;20203;-82
2021/12/03 04:49:27;;;;;;;6.33;5.10;;;;;;;3.26;76.19;95119.41;4993671;28;20231;-81
2021/12/03 04:51:54;;;;;;;5.77;5.00;;;;;;;3.27;75.83;95125.31;4994444;28;20227;-82
2021/12/03 04:54:22;;;;;;;5.40;4.47;;;;;;;3.26;75.75;95123.72;4993864;28;20678;-82
2021/12/03 04:56:50;;;;;;;5.10;4.60;;;;;;;3.19;75.69;95130.28;4994194;28;20202;-82
2021/12/03 04:59:16;;;;;;;5.63;4.23;;;;;;;3.23;75.81;95141.78;4994158;28;20729;-82
2021/12/03 05:01:43;;;;;;;5.27;4.77;;;;;;;3.15;75.26;95142.50;4995219;28;20204;-80
2021/12/03 05:04:09;;;;;;;5.40;4.80;;;;;;;3.20;75.37;95150.50;4994861;28;20204;-82
2021/12/03 05:06:53;;;;;;;4.90;4.40;;;;;;;3.24;75.40;95145.94;4994436;28;20209;-82
2021/12/03 05:09:19;;;;;;;5.43;4.43;;;;;;;3.30;75.08;95145.34;4993854;28;20829;-81
2021/12/03 05:11:46;;;;;;;5.97;4.60;;;;;;;3.24;74.69;95153.56;4994649;28;20613;-82
2021/12/03 05:14:14;;;;;;;5.67;4.97;;;;;;;3.29;74.66;95159.81;4994197;28;20203;-82
2021/12/03 05:16:40;;;;;;;6.40;4.80;;;;;;;3.47;97.31;95157.28;4994783;28;20229;-82
2021/12/03 05:19:07;;;;;;;6.27;4.93;;;;;;;3.79;80.13;95156.81;4992462;28;20227;-81
2021/12/03 05:21:33;;;;;;;5.10;4.60;;;;;;;3.71;75.09;95156.75;4994282;28;20195;-81
2021/12/03 05:23:59;;;;;;;5.43;4.80;;;;;;;3.73;74.64;95175.22;4994115;28;20203;-82
2021/12/03 05:26:26;;;;;;;5.10;4.60;;;;;;;3.71;74.10;95174.56;4994446;28;20226;-81
2021/12/03 05:28:52;;;;;;;5.07;4.50;;;;;;;3.63;73.79;95177.03;4994713;28;20203;-82
2021/12/03 05:31:20;;;;;;;4.93;4.43;;;;;;;3.61;73.73;95179.72;4994503;28;20222;-81
2021/12/03 05:33:47;;;;;;;5.23;4.73;;;;;;;3.46;74.29;95188.81;4994114;28;20227;-82
2021/12/03 05:36:13;;;;;;;5.23;4.73;;;;;;;3.53;74.13;95192.34;4993606;28;20216;-82
2021/12/03 05:38:40;;;;;;;5.03;4.57;;;;;;;3.56;74.48;95197.16;4994072;28;20199;-81
2021/12/03 05:41:07;;;;;;;5.10;4.60;;;;;;;3.57;74.13;95201.31;4994045;28;20219;-81
2021/12/03 05:43:33;;;;;;;5.07;4.57;;;;;;;3.58;74.56;95200.38;4994267;28;20573;-82
2021/12/03 05:45:59;;;;;;;5.80;4.97;;;;;;;3.59;74.27;95209.63;4984024;28;20235;-82
2021/12/03 05:48:27;;;;;;;6.00;5.40;;;;;;;3.48;74.32;95214.88;4987859;28;20200;-80
2021/12/03 05:50:54;;;;;;;5.40;4.90;;;;;;;3.41;73.96;95219.75;4989975;28;20717;-81
2021/12/03 05:53:20;;;;;;;5.13;4.63;;;;;;;3.46;74.55;95219.34;4992518;28;20212;-81
2021/12/03 05:55:47;;;;;;;5.50;5.00;;;;;;;3.41;74.74;95221.50;4990062;28;20565;-82
2021/12/03 05:58:15;;;;;;;8.10;5.43;;;;;;;3.38;75.17;95225.13;4990775;28;20203;-82
2021/12/03 06:00:42;;;;;;;9.90;8.00;;;;;;;3.31;74.92;95236.00;4994956;28;20229;-82
2021/12/03 06:03:09;;;;;;;6.70;5.80;;;;;;;3.31;75.00;95241.88;4997882;28;20204;-82
2021/12/03 06:05:40;;;;;;;6.20;5.60;;;;;;;3.27;75.41;95239.78;4996038;28;20219;-81
2021/12/03 06:08:06;;;;;;;6.90;5.40;;;;;;;3.26;75.85;95245.81;4990372;28;20295;-80
2021/12/03 06:10:33;;;;;;;8.10;5.73;;;;;;;3.32;75.93;95248.56;4996432;28;20230;-82
2021/12/03 06:13:00;;;;;;;5.53;4.70;;;;;;;3.28;75.38;95256.63;4997238;28;20230;-82
2021/12/03 06:15:28;;;;;;;6.30;5.30;;;;;;;3.29;75.75;95261.56;4994933;28;20219;-82
2021/12/03 06:17:54;;;;;;;9.10;5.50;;;;;;;3.30;76.27;95257.28;4996304;28;20207;-81
2021/12/03 06:20:21;;;;;;;6.10;5.40;;;;;;;3.33;75.21;95262.91;4995943;28;20239;-82
2021/12/03 06:22:49;;;;;;;6.23;5.63;;;;;;;3.31;74.73;95269.06;4988117;28;20224;-82
2021/12/03 06:25:16;;;;;;;6.23;5.63;;;;;;;3.21;75.20;95271.66;4995623;28;20224;-80
2021/12/03 06:27:43;;;;;;;7.03;6.30;;;;;;;3.20;76.12;95271.78;4996232;28;20686;-80
2021/12/03 06:30:13;;;;;;;11.03;8.97;;;;;;;3.20;75.76;95272.59;4995515;28;20238;-82
2021/12/03 06:32:41;;;;;;;11.07;9.10;;;;;;;3.20;76.13;95277.69;4995039;28;20234;-81
2021/12/03 06:35:11;;;;;;;7.07;6.17;;;;;;;3.23;75.49;95274.88;4995871;28;20226;-81
2021/12/03 06:37:38;;;;;;;7.00;6.30;;;;;;;3.33;74.89;95268.00;4994402;28;20203;-81
2021/12/03 06:40:09;;;;;;;8.07;6.33;;;;;;;3.34;74.75;95276.41;4994617;28;20601;-82
2021/12/03 06:42:35;;;;;;;7.07;6.00;;;;;;;3.35;75.16;95275.47;4994315;28;20199;-82
2021/12/03 06:45:05;;;;;;;7.50;5.73;;;;;;;3.36;75.23;95280.44;4986924;28;20223;-82
2021/12/03 06:47:32;;;;;;;7.50;6.33;;;;;;;3.37;75.33;95286.31;4993888;28;20195;-82
2021/12/03 06:49:59;;;;;;;7.67;6.20;;;;;;;3.41;74.90;95287.66;4994265;28;20613;-83
2021/12/03 06:52:26;;;;;;;7.67;6.87;;;;;;;3.36;74.59;95290.59;4995099;28;20219;-83
2021/12/03 06:54:58;;;;;;;6.90;6.17;;;;;;;3.30;74.99;95298.78;4994694;28;20224;-82
2021/12/03 06:57:26;;;;;;;8.53;6.90;;;;;;;3.27;74.80;95304.16;4994418;28;20199;-82
2021/12/03 06:59:52;;;;;;;7.17;6.47;;;;;;;3.24;74.91;95301.09;4994108;28;20235;-83
2021/12/03 07:02:18;;;;;;;7.07;6.37;;;;;;;3.18;75.42;95311.81;4995977;28;20196;-82
2021/12/03 07:04:45;;;;;;;7.30;6.60;;;;;;;3.20;75.44;95315.84;4994181;28;20311;-82
2021/12/03 07:07:12;;;;;;;9.53;7.03;;;;;;;3.18;74.98;95322.00;4996340;28;20203;-81
2021/12/03 07:09:38;;;;;;;7.13;6.43;;;;;;;3.14;75.17;95324.00;4994556;28;20306;-82
2021/12/03 07:12:05;;;;;;;6.80;6.10;;;;;;;3.21;75.07;95317.44;4994404;28;20219;-83
2021/12/03 07:14:33;;;;;;;9.00;6.63;;;;;;;3.10;75.28;95322.69;4994593;28;20207;-81
2021/12/03 07:17:05;;;;;;;7.93;6.90;;;;;;;3.12;75.28;95329.22;4994515;28;20210;-81
2021/12/03 07:19:31;;;;;;;8.90;5.90;;;;;;;3.08;75.24;95327.91;4994269;28;20231;-81
2021/12/03 07:21:57;;;;;;;7.13;6.10;;;;;;;3.06;74.74;95326.47;4993542;28;20579;-81
2021/12/03 07:24:24;;;;;;;7.33;6.37;;;;;;;3.09;74.58;95341.41;4993535;28;20210;-82
2021/12/03 07:26:50;;;;;;;8.53;6.60;;;;;;;3.14;74.81;95344.34;4994908;28;20663;-80
2021/12/03 07:29:17;;;;;;;9.40;6.13;;;;;;;3.10;75.42;95343.81;4990019;28;20592;-82
2021/12/03 07:31:45;;;;;;;7.57;6.33;;;;;;;3.12;74.98;95346.22;4983858;28;20224;-82
2021/12/03 07:34:12;;;;;;;8.07;6.27;;;;;;;3.24;74.92;95347.69;4993454;28;20286;-82
2021/12/03 07:36:39;;;;;;;8.23;6.40;;;;;;;3.29;74.86;95345.53;4993463;28;20214;-83
2021/12/03 07:39:05;;;;;;;9.73;7.00;;;;;;;3.40;74.24;95357.28;4991931;28;20319;-82
2021/12/03 07:41:31;;;;;;;7.90;7.10;;;;;;;3.49;74.21;95356.44;4992887;28;20455;-82
2021/12/03 07:43:58;;;;;;;7.83;6.43;;;;;;;3.52;73.75;95363.81;4992580;28;20203;-83
2021/12/03 07:46:24;;;;;;;7.73;6.93;;;;;;;3.47;73.80;95363.41;4991669;28;20225;-80
2021/12/03 07:48:52;;;;;;;9.23;6.90;;;;;;;3.50;74.50;95368.25;4992004;28;20214;-82
2021/12/03 07:51:18;;;;;;;8.83;7.27;;;;;;;3.46;74.93;95362.63;4991483;28;20204;-80
2021/12/03 07:53:45;;;;;;;8.37;7.33;;;;;;;3.51;75.31;95369.03;4990301;28;20303;-82
2021/12/03 07:56:12;;;;;;;7.07;6.17;;;;;;;3.42;73.62;95380.88;4992287;28;20219;-80
2021/12/03 07:58:38;;;;;;;7.30;6.00;;;;;;;3.42;73.19;95376.59;4991644;28;20207;-82
2021/12/03 08:01:05;;;;;;;7.77;6.13;;;;;;;3.49;73.21;95374.25;4991553;28;20219;-82
2021/12/03 08:03:31;;;;;;;8.07;6.43;;;;;;;3.64;72.40;95378.00;4992094;28;20219;-82
2021/12/03 08:06:05;;;;;;;6.23;5.30;;;;;;;3.70;70.83;95379.97;4991990;28;20632;-82
2021/12/03 08:08:31;;;;;;;7.30;6.57;;;;;;;3.81;70.34;95387.44;4991274;28;20207;-82
2021/12/03 08:10:58;;;;;;;23.37;17.23;;;;;;;3.92;70.16;95378.81;4991810;28;20223;-83
2021/12/03 08:13:24;;;;;;;8.73;7.10;;;;;;;3.90;69.24;95385.78;4991396;28;20294;-82
2021/12/03 08:15:51;;;;;;;7.27;5.23;;;;;;;3.97;68.85;95386.84;4990884;28;20216;-82
2021/12/03 08:18:17;;;;;;;6.43;5.83;;;;;;;4.11;68.88;95391.47;4991219;28;20796;-81
2021/12/03 08:20:44;;;;;;;6.73;5.53;;;;;;;4.32;68.39;95388.66;4991136;28;20257;-81
2021/12/03 08:23:12;;;;;;;6.07;5.47;;;;;;;4.58;67.87;95398.19;4992103;28;20303;-83
2021/12/03 08:25:39;;;;;;;6.90;5.67;;;;;;;4.81;67.34;95397.59;4990036;28;20242;-82
2021/12/03 08:28:06;;;;;;;6.93;6.17;;;;;;;4.95;67.57;95400.59;4989357;28;20226;-81
2021/12/03 08:30:32;;;;;;;6.17;5.57;;;;;;;4.97;67.77;95396.16;4992149;28;20599;-80
2021/12/03 08:32:59;;;;;;;6.47;5.77;;;;;;;4.87;67.11;95396.22;4992002;28;20219;-81
2021/12/03 08:35:26;;;;;;;6.77;6.07;;;;;;;4.87;66.37;95406.41;4991242;28;20226;-83
2021/12/03 08:37:53;;;;;;;6.67;5.97;;;;;;;5.02;66.89;95404.16;4990702;28;20953;-82
2021/12/03 08:40:22;;;;;;;7.27;5.97;;;;;;;5.00;67.20;95400.97;4991070;28;20221;-82
2021/12/03 08:42:49;;;;;;;6.77;6.03;;;;;;;4.95;66.92;95398.84;4991457;28;20204;-82
2021/12/03 08:45:20;;;;;;;7.17;6.30;;;;;;;5.16;66.59;95409.56;4991426;28;20235;-81
2021/12/03 08:47:50;;;;;;;6.47;5.87;;;;;;;5.33;65.93;95405.38;4991886;28;20286;-82
2021/12/03 08:50:20;;;;;;;13.80;10.57;;;;;;;5.35;65.59;95406.03;4991774;28;20223;-82
2021/12/03 08:53:03;;;;;;;10.87;9.30;;;;;;;5.28;65.02;95414.41;4991145;28;20302;-82
2021/12/03 08:55:31;;;;;;;7.10;5.97;;;;;;;5.27;65.38;95415.38;4985806;28;20238;-82
2021/12/03 08:57:58;;;;;;;6.83;6.10;;;;;;;5.51;65.45;95428.31;4986547;28;20211;-81
2021/12/03 09:00:24;;;;;;;6.40;5.80;;;;;;;5.60;64.34;95431.72;4992980;28;20215;-82
2021/12/03 09:02:51;;;;;;;5.90;5.33;;;;;;;5.67;64.72;95425.88;4991777;28;20201;-82
2021/12/03 09:05:17;;;;;;;6.77;5.77;;;;;;;5.67;63.82;95433.53;4992433;28;20586;-82
2021/12/03 09:07:44;;;;;;;5.50;5.00;;;;;;;5.51;63.60;95430.88;4991836;28;20203;-83
2021/12/03 09:10:13;;;;;;;7.27;5.40;;;;;;;5.44;63.56;95425.56;4991474;28;20227;-83
2021/12/03 09:12:41;;;;;;;6.03;5.40;;;;;;;5.61;63.92;95425.66;4992397;28;20783;-83
2021/12/03 09:15:11;;;;;;;7.67;5.37;;;;;;;5.86;63.24;95432.53;4992535;28;20660;-83
2021/12/03 09:17:44;;;;;;;6.70;6.00;;;;;;;6.06;62.67;95428.84;4992886;28;20274;-83
2021/12/03 09:20:23;;;;;;;6.43;5.83;;;;;;;6.29;61.15;95426.53;4990649;28;20297;-82
2021/12/03 09:22:52;;;;;;;5.60;5.10;;;;;;;6.60;60.58;95426.78;4991888;28;20199;-81
2021/12/03 09:25:23;;;;;;;5.50;5.00;;;;;;;6.68;59.34;95426.84;4991481;28;20230;-82
2021/12/03 09:27:52;;;;;;;5.83;5.27;;;;;;;6.82;60.38;95435.66;4991136;28;20218;-80
2021/12/03 09:30:19;;;;;;;5.67;5.17;;;;;;;6.94;60.00;95429.25;4991565;28;20285;-82
2021/12/03 09:32:51;;;;;;;5.60;5.10;;;;;;;6.73;59.49;95427.16;4991668;28;20223;-80
2021/12/03 09:35:17;;;;;;;6.13;4.87;;;;;;;6.69;58.05;95419.97;4992918;28;20223;-80
2021/12/03 09:37:44;;;;;;;4.57;4.17;;;;;;;6.65;57.95;95424.56;4995735;28;20204;-81
2021/12/03 09:40:19;;;;;;;4.70;4.30;;;;;;;6.49;57.94;95429.66;4995653;28;20265;-83
2021/12/03 09:42:46;;;;;;;5.10;4.00;;;;;;;6.09;58.23;95423.41;4995995;28;20566;-81
2021/12/03 09:45:14;;;;;;;6.57;4.50;;;;;;;6.06;58.65;95416.06;4995519;28;20590;-83
2021/12/03 09:47:41;;;;;;;4.70;4.30;;;;;;;6.17;59.44;95417.53;4996310;28;20192;-82
2021/12/03 09:50:12;;;;;;;4.37;3.97;;;;;;;5.99;58.07;95416.81;4996252;28;20251;-82
2021/12/03 09:52:44;;;;;;;4.83;4.33;;;;;;;5.80;58.19;95422.91;4995580;28;20575;-83
2021/12/03 09:55:12;;;;;;;4.40;4.00;;;;;;;5.48;59.22;95431.97;4996211;28;20642;-83
2021/12/03 09:57:43;;;;;;;5.87;4.10;;;;;;;5.33;59.57;95430.09;4994990;28;20227;-82
2021/12/03 10:00:28;;;;;;;4.80;4.30;;;;;;;5.67;59.55;95428.41;4994063;28;20270;-83
2021/12/03 10:03:08;;;;;;;4.60;3.90;;;;;;;5.77;57.87;95426.56;4994700;28;20195;-83
2021/12/03 10:12:11;;;;;;;5.77;4.53;;;;;;;6.08;56.27;95409.03;4986366;28;20311;-82
2021/12/03 10:14:48;;;;;;;9.73;8.47;;;;;;;6.08;55.63;95403.94;4995228;28;20230;-83
2021/12/03 10:17:33;;;;;;;4.60;4.10;;;;;;;6.11;55.12;95400.28;4995635;28;20257;-82
2021/12/03 10:20:12;;;;;;;4.47;4.03;;;;;;;6.29;55.63;95393.31;4994501;28;20310;-82
2021/12/03 10:25:57;;;;;;;4.87;4.33;;;;;;;6.31;55.97;95391.41;4973715;28;20290;-83
2021/12/03 10:34:13;;;;;;;4.60;3.93;;;;;;;6.57;54.65;95376.75;4994889;28;20226;-83
2021/12/03 10:36:58;;;;;;;5.10;3.97;;;;;;;6.80;54.52;95384.63;4995074;28;20227;-82
2021/12/03 10:39:42;;;;;;;4.30;3.90;;;;;;;6.83;53.50;95376.63;4992994;28;20231;-83
2021/12/03 10:42:25;;;;;;;4.20;3.80;;;;;;;6.88;53.27;95374.41;4994643;28;20219;-83
2021/12/03 10:45:09;;;;;;;5.53;4.20;;;;;;;6.83;52.29;95365.59;4995184;28;20612;-83
2021/12/03 10:47:57;;;;;;;6.63;3.70;;;;;;;6.86;51.61;95367.84;4993909;28;20226;-83
2021/12/03 10:50:38;;;;;;;4.20;3.80;;;;;;;6.78;52.62;95358.41;4976959;28;20231;-82
2021/12/03 10:53:19;;;;;;;4.17;3.77;;;;;;;6.79;52.29;95360.00;4985141;28;20226;-82
2021/12/03 10:56:16;;;;;;;3.37;3.07;;;;;;;6.81;50.94;95355.53;4993167;28;20230;-81
2021/12/03 11:30:29;;;;;;;3.00;2.70;;;;;;;6.59;49.08;95353.56;4975333;28;20294;-82
2021/12/03 13:27:07;;;;;;;3.77;3.47;;;;;;;5.59;53.61;95328.75;4986095;28;20215;-80
2021/12/03 14:00:51;;;;;;;2.90;2.70;;;;;;;4.83;54.12;95313.28;4991208;28;20273;-82
2021/12/03 14:09:11;;;;;;;4.77;3.10;;;;;;;5.60;54.04;95307.38;4986915;28;20238;-82
2021/12/03 14:42:48;;;;;;;3.93;2.93;;;;;;;4.47;56.26;95302.31;4995169;28;20208;-81
2021/12/03 14:45:56;;;;;;;4.80;3.20;;;;;;;4.40;56.44;95297.00;4994378;28;20234;-82
2021/12/03 14:51:42;;;;;;;4.00;3.17;;;;;;;4.43;56.49;95316.28;4991336;28;20224;-82
2021/12/03 14:57:14;;;;;;;4.43;3.40;;;;;;;4.42;57.08;95315.53;5012704;28;20206;-81
2021/12/03 14:59:58;;;;;;;3.70;3.30;;;;;;;4.34;57.68;95315.44;4998960;28;20223;-82
2021/12/03 15:02:41;;;;;;;4.57;3.43;;;;;;;4.38;57.39;95319.28;5014473;28;20206;-81
2021/12/03 15:05:19;;;;;;;4.90;2.97;;;;;;;4.41;57.65;95318.22;5001068;28;20232;-82
2021/12/03 15:07:51;;;;;;;4.00;3.50;;;;;;;4.43;57.70;95319.63;4994327;28;20271;-80
2021/12/03 15:10:24;;;;;;;3.83;3.43;;;;;;;4.35;57.90;95314.47;4993293;28;20662;-82
2021/12/03 15:18:55;;;;;;;4.10;3.60;;;;;;;4.29;57.83;95304.84;5014106;28;20202;-81
2021/12/03 15:27:26;;;;;;;4.20;3.80;;;;;;;4.35;58.60;95309.38;4994076;28;20202;-81
2021/12/03 15:32:39;;;;;;;5.10;3.67;;;;;;;4.39;58.15;95295.41;4973045;28;20746;-81
2021/12/03 15:35:11;;;;;;;14.10;10.93;;;;;;;4.35;58.48;95303.50;4974316;28;20276;-82
2021/12/03 15:40:43;;;;;;;5.37;4.30;;;;;;;4.34;58.55;95306.97;4957185;28;20632;-81
2021/12/03 15:57:15;;;;;;;4.57;4.13;;;;;;;4.25;59.22;95292.53;4988675;28;20261;-82
2021/12/03 16:05:21;;;;;;;10.27;8.80;;;;;;;4.33;60.58;95288.34;4986642;28;20222;-82
2021/12/03 16:08:04;;;;;;;8.77;4.70;;;;;;;4.28;59.69;95290.50;4994104;28;20226;-82
2021/12/03 16:10:35;;;;;;;7.17;4.90;;;;;;;4.27;59.48;95288.09;4993460;28;20230;-82
2021/12/03 16:13:22;;;;;;;4.67;4.20;;;;;;;4.32;59.17;95278.28;4993890;28;20811;-82
2021/12/03 16:21:32;;;;;;;6.67;4.73;;;;;;;4.18;59.49;95281.34;5028884;23;20716;-85
2021/12/03 16:27:02;;;;;;;8.20;4.50;;;;;;;4.14;59.79;95270.63;4995493;28;20230;-84
2021/12/03 16:43:44;;;;;;;5.20;4.37;;;;;;;3.85;59.89;95268.25;4978346;28;20351;-83
2021/12/03 16:46:41;;;;;;;4.63;4.23;;;;;;;3.90;59.94;95273.75;4977780;28;20555;-82